createdAt,value
2019-01-26T00:02:13.978Z,3.10
2019-01-26T00:04:42.290Z,2.47
2019-01-26T00:07:10.612Z,3.23
2019-01-26T00:09:38.900Z,2.47
2019-01-26T00:12:07.165Z,2.87
2019-01-26T00:14:35.518Z,2.50
2019-01-26T00:17:03.776Z,2.87
2019-01-26T00:19:32.067Z,2.40
2019-01-26T00:22:00.401Z,2.40
2019-01-26T00:24:28.697Z,2.47
2019-01-26T00:26:56.962Z,2.57
2019-01-26T00:29:25.251Z,1.97
2019-01-26T00:31:53.501Z,2.40
2019-01-26T00:34:22.141Z,2.60
2019-01-26T00:36:50.423Z,2.60
2019-01-26T00:39:18.756Z,2.17
2019-01-26T00:41:47.095Z,2.90
2019-01-26T00:44:15.464Z,2.73
2019-01-26T00:46:43.810Z,2.90
2019-01-26T00:49:12.072Z,2.87
2019-01-26T00:51:40.361Z,3.27
2019-01-26T00:54:08.666Z,3.17
2019-01-26T00:56:37.013Z,3.30
2019-01-26T00:59:05.311Z,3.70
2019-01-26T01:01:33.665Z,3.67
2019-01-26T01:04:02.000Z,3.77
2019-01-26T01:06:30.366Z,4.20
2019-01-26T01:08:58.689Z,3.90
2019-01-26T01:11:26.972Z,3.67
2019-01-26T01:13:55.256Z,4.20
2019-01-26T01:16:23.555Z,4.60
2019-01-26T01:18:51.831Z,4.10
2019-01-26T01:21:20.222Z,4.63
2019-01-26T01:23:48.487Z,5.33
2019-01-26T01:26:16.776Z,5.47
2019-01-26T01:28:45.045Z,5.83
2019-01-26T01:31:13.342Z,6.80
2019-01-26T01:33:41.672Z,6.87
2019-01-26T01:36:09.991Z,7.80
2019-01-26T01:38:38.245Z,7.20
2019-01-26T01:41:06.551Z,7.27
2019-01-26T01:43:34.801Z,7.40
2019-01-26T01:46:03.036Z,7.60
2019-01-26T01:48:31.332Z,7.27
2019-01-26T01:50:59.581Z,8.57
2019-01-26T01:53:27.891Z,8.10
2019-01-26T01:55:56.127Z,9.23
2019-01-26T01:58:24.426Z,10.83
2019-01-26T02:00:52.775Z,10.83
2019-01-26T02:03:21.064Z,9.43
2019-01-26T02:05:49.396Z,11.07
2019-01-26T02:08:17.685Z,9.87
2019-01-26T02:10:45.930Z,10.40
2019-01-26T02:13:14.221Z,11.70
2019-01-26T02:15:42.506Z,10.83
2019-01-26T02:18:10.901Z,11.90
2019-01-26T02:20:39.235Z,10.57
2019-01-26T02:23:07.532Z,12.00
2019-01-26T02:25:35.870Z,11.10
2019-01-26T02:28:04.225Z,11.43
2019-01-26T02:30:32.477Z,11.70
2019-01-26T02:33:00.771Z,12.27
2019-01-26T02:35:29.060Z,11.73
2019-01-26T02:37:57.332Z,12.77
2019-01-26T02:40:25.612Z,11.57
2019-01-26T02:42:53.879Z,11.87
2019-01-26T02:45:22.176Z,12.07
2019-01-26T02:47:50.445Z,10.77
2019-01-26T02:50:18.741Z,11.80
2019-01-26T02:52:46.978Z,11.13
2019-01-26T02:55:15.342Z,11.33
2019-01-26T02:57:43.600Z,11.67
2019-01-26T03:00:20.687Z,10.47
2019-01-26T03:02:49.026Z,10.50
2019-01-26T03:05:17.491Z,9.87
2019-01-26T03:07:45.773Z,9.00
2019-01-26T03:10:16.669Z,8.77
2019-01-26T03:12:44.912Z,8.83
2019-01-26T03:15:15.937Z,8.80
2019-01-26T03:17:44.217Z,8.23
2019-01-26T03:20:14.030Z,9.23
2019-01-26T03:22:42.321Z,9.20
2019-01-26T03:25:11.927Z,8.53
2019-01-26T03:27:40.215Z,8.63
2019-01-26T03:30:16.926Z,9.03
2019-01-26T03:32:45.349Z,8.80
2019-01-26T03:35:13.628Z,8.93
2019-01-26T03:37:41.978Z,9.70
2019-01-26T03:40:13.019Z,9.00
2019-01-26T03:42:41.318Z,10.03
2019-01-26T03:45:11.586Z,9.60
2019-01-26T03:47:39.877Z,8.83
2019-01-26T03:50:10.700Z,9.17
2019-01-26T03:52:38.999Z,8.67
2019-01-26T03:55:09.502Z,8.17
2019-01-26T03:57:37.803Z,8.17
2019-01-26T04:00:09.308Z,8.37
2019-01-26T04:02:37.612Z,7.90
2019-01-26T04:05:07.106Z,8.60
2019-01-26T04:07:35.395Z,10.03
2019-01-26T04:10:05.099Z,10.23
2019-01-26T04:12:33.367Z,10.00
2019-01-26T04:15:01.647Z,11.53
2019-01-26T04:17:29.942Z,11.20
2019-01-26T04:19:58.200Z,12.00
2019-01-26T04:22:26.483Z,13.10
2019-01-26T04:24:54.736Z,13.10
2019-01-26T04:27:23.038Z,13.73
2019-01-26T04:29:51.437Z,15.33
2019-01-26T04:32:19.738Z,14.40
2019-01-26T04:34:47.991Z,13.33
2019-01-26T04:37:16.319Z,12.70
2019-01-26T04:39:44.608Z,12.93
2019-01-26T04:42:13.020Z,12.87
2019-01-26T04:44:41.303Z,12.83
2019-01-26T04:47:09.567Z,11.83
2019-01-26T04:49:37.837Z,12.87
2019-01-26T04:52:06.104Z,13.60
2019-01-26T04:54:34.397Z,11.47
2019-01-26T04:57:02.662Z,12.17
2019-01-26T04:59:30.942Z,11.23
2019-01-26T05:01:59.208Z,11.80
2019-01-26T05:04:27.527Z,10.37
2019-01-26T05:06:55.779Z,12.67
2019-01-26T05:09:24.028Z,12.27
2019-01-26T05:11:52.306Z,11.73
2019-01-26T05:14:20.582Z,11.60
2019-01-26T05:16:48.859Z,12.90
2019-01-26T05:19:17.139Z,12.90
2019-01-26T05:21:45.414Z,12.83
2019-01-26T05:24:13.759Z,15.00
2019-01-26T05:26:42.053Z,16.00
2019-01-26T05:29:10.310Z,15.97
2019-01-26T05:31:38.602Z,16.10
2019-01-26T05:34:06.867Z,16.03
2019-01-26T05:36:35.156Z,15.33
2019-01-26T05:39:04.552Z,17.37
2019-01-26T05:41:32.823Z,16.47
2019-01-26T05:44:01.107Z,14.20
2019-01-26T05:46:29.443Z,14.57
2019-01-26T05:48:57.706Z,13.60
2019-01-26T05:51:25.986Z,13.83
2019-01-26T05:53:54.242Z,17.40
2019-01-26T05:56:22.543Z,16.97
2019-01-26T05:58:50.883Z,13.80
2019-01-26T06:01:19.188Z,12.40
2019-01-26T06:03:47.460Z,15.53
2019-01-26T06:06:15.753Z,18.17
2019-01-26T06:08:44.024Z,18.33
2019-01-26T06:11:12.322Z,17.60
2019-01-26T06:13:40.657Z,16.77
2019-01-26T06:16:08.903Z,15.20
2019-01-26T06:18:37.222Z,12.70
2019-01-26T06:21:05.494Z,12.50
2019-01-26T06:23:33.791Z,11.80
2019-01-26T06:26:02.166Z,12.00
2019-01-26T06:28:30.479Z,12.97
2019-01-26T06:30:58.781Z,12.90
2019-01-26T06:33:27.057Z,13.37
2019-01-26T06:35:55.314Z,14.63
2019-01-26T06:38:23.626Z,15.00
2019-01-26T06:40:51.873Z,13.93
2019-01-26T06:43:20.191Z,14.20
2019-01-26T06:45:48.492Z,14.93
2019-01-26T06:48:16.788Z,15.20
2019-01-26T06:50:45.047Z,15.37
2019-01-26T06:53:13.341Z,15.27
2019-01-26T06:55:41.584Z,13.70
2019-01-26T06:58:09.881Z,15.83
2019-01-26T07:00:38.163Z,15.97
2019-01-26T07:03:06.518Z,14.57
2019-01-26T07:05:39.361Z,16.33
2019-01-26T07:08:08.734Z,16.73
2019-01-26T07:10:36.984Z,17.07
2019-01-26T07:13:05.244Z,16.97
2019-01-26T07:15:33.552Z,17.23
2019-01-26T07:18:01.813Z,17.73
2019-01-26T07:20:30.103Z,17.13
2019-01-26T07:22:58.358Z,17.00
2019-01-26T07:25:26.733Z,16.03
2019-01-26T07:27:54.993Z,17.47
2019-01-26T07:30:24.843Z,17.50
2019-01-26T07:32:53.091Z,16.53
2019-01-26T07:35:21.652Z,18.23
2019-01-26T07:37:49.917Z,17.63
2019-01-26T07:40:24.852Z,17.43
2019-01-26T07:42:53.123Z,17.90
2019-01-26T07:45:21.561Z,18.73
2019-01-26T07:47:49.938Z,19.60
2019-01-26T07:50:20.260Z,20.47
2019-01-26T07:52:48.542Z,20.30
2019-01-26T07:55:16.909Z,21.13
2019-01-26T07:57:45.172Z,20.93
2019-01-26T08:00:16.757Z,21.97
2019-01-26T08:02:45.025Z,22.20
2019-01-26T08:05:13.322Z,21.53
2019-01-26T08:07:41.615Z,20.57
2019-01-26T08:10:12.708Z,20.53
2019-01-26T08:12:40.956Z,20.53
2019-01-26T08:15:12.392Z,18.50
2019-01-26T08:17:40.639Z,21.33
2019-01-26T08:20:11.944Z,19.60
2019-01-26T08:22:40.219Z,20.50
2019-01-26T08:25:08.689Z,20.57
2019-01-26T08:27:36.998Z,22.00
2019-01-26T08:30:08.558Z,21.20
2019-01-26T08:32:36.836Z,22.47
2019-01-26T08:35:06.547Z,21.93
2019-01-26T08:37:34.908Z,21.23
2019-01-26T08:40:04.426Z,19.07
2019-01-26T08:42:32.783Z,22.00
2019-01-26T08:45:01.053Z,20.67
2019-01-26T08:47:29.359Z,20.10
2019-01-26T08:49:57.623Z,20.50
2019-01-26T08:52:25.939Z,21.23
2019-01-26T08:54:54.278Z,21.77
2019-01-26T08:57:22.562Z,22.37
2019-01-26T08:59:50.827Z,18.97
2019-01-26T09:02:29.566Z,23.17
2019-01-26T09:04:58.118Z,21.43
2019-01-26T09:07:26.428Z,20.10
2019-01-26T09:09:54.689Z,16.97
2019-01-26T09:12:22.992Z,15.53
2019-01-26T09:14:51.256Z,15.83
2019-01-26T09:17:19.553Z,16.27
2019-01-26T09:19:47.832Z,15.63
2019-01-26T09:22:16.197Z,14.97
2019-01-26T09:24:44.479Z,14.77
2019-01-26T09:27:12.834Z,15.97
2019-01-26T09:29:42.580Z,14.47
2019-01-26T09:32:10.963Z,14.47
2019-01-26T09:34:39.276Z,15.23
2019-01-26T09:37:07.543Z,13.27
2019-01-26T09:39:35.815Z,13.50
2019-01-26T09:42:04.084Z,12.93
2019-01-26T09:44:32.512Z,10.67
2019-01-26T09:47:00.844Z,11.10
2019-01-26T09:49:29.146Z,11.70
2019-01-26T09:51:57.462Z,9.50
2019-01-26T09:54:25.769Z,9.73
2019-01-26T09:56:54.116Z,9.27
2019-01-26T09:59:22.400Z,10.07
2019-01-26T10:01:50.669Z,10.87
2019-01-26T10:04:19.021Z,10.10
2019-01-26T10:06:47.278Z,9.70
2019-01-26T10:09:15.587Z,8.87
2019-01-26T10:11:43.983Z,8.43
2019-01-26T10:14:12.306Z,8.50
2019-01-26T10:16:40.606Z,8.20
2019-01-26T10:19:08.872Z,8.27
2019-01-26T10:21:37.147Z,8.67
2019-01-26T10:24:05.399Z,8.10
2019-01-26T10:26:33.697Z,8.23
2019-01-26T10:29:02.098Z,8.13
2019-01-26T10:31:30.453Z,7.53
2019-01-26T10:33:58.747Z,8.17
2019-01-26T10:36:28.693Z,8.07
2019-01-26T10:38:58.247Z,7.63
2019-01-26T10:41:28.259Z,8.57
2019-01-26T10:43:56.597Z,7.90
2019-01-26T10:46:24.943Z,8.37
2019-01-26T10:48:53.374Z,8.37
2019-01-26T10:51:21.706Z,9.77
2019-01-26T10:53:49.979Z,9.40
2019-01-26T10:56:18.248Z,10.20
2019-01-26T10:58:46.537Z,10.73
2019-01-26T11:01:14.789Z,9.87
2019-01-26T11:03:43.136Z,10.47
2019-01-26T11:06:11.405Z,11.20
2019-01-26T11:08:39.708Z,11.53
2019-01-26T11:11:07.987Z,11.50
2019-01-26T11:13:36.287Z,12.23
2019-01-26T11:16:04.566Z,11.20
2019-01-26T11:18:32.869Z,11.03
2019-01-26T11:21:01.145Z,11.23
2019-01-26T11:23:29.441Z,12.33
2019-01-26T11:25:57.709Z,12.23
2019-01-26T11:28:26.033Z,11.40
2019-01-26T11:30:54.291Z,12.00
2019-01-26T11:33:22.578Z,12.70
2019-01-26T11:35:50.857Z,11.20
2019-01-26T11:38:19.183Z,11.73
2019-01-26T11:40:47.467Z,11.23
2019-01-26T11:43:15.741Z,12.97
2019-01-26T11:45:45.773Z,13.43
2019-01-26T11:48:15.800Z,12.23
2019-01-26T11:51:01.663Z,11.07
2019-01-26T11:53:29.959Z,10.73
2019-01-26T11:56:05.849Z,12.10
2019-01-26T11:58:34.114Z,11.37
2019-01-26T12:01:06.788Z,8.97
2019-01-26T12:03:42.673Z,10.20
2019-01-26T12:06:12.609Z,9.13
2019-01-26T12:08:40.874Z,8.83
2019-01-26T12:11:09.257Z,8.93
2019-01-26T12:13:37.581Z,9.43
2019-01-26T12:16:05.877Z,10.00
2019-01-26T12:18:34.149Z,8.10
2019-01-26T12:21:02.444Z,10.47
2019-01-26T12:23:30.693Z,9.10
2019-01-26T12:25:59.035Z,9.60
2019-01-26T12:28:27.394Z,10.50
2019-01-26T12:30:55.677Z,9.93
2019-01-26T12:33:23.952Z,9.37
2019-01-26T12:35:52.324Z,9.50
2019-01-26T12:38:20.578Z,8.63
2019-01-26T12:40:48.873Z,8.83
2019-01-26T12:43:17.127Z,8.73
2019-01-26T12:45:45.409Z,9.93
2019-01-26T12:48:13.672Z,8.70
2019-01-26T12:50:41.973Z,7.27
2019-01-26T12:53:10.249Z,8.40
2019-01-26T12:55:38.503Z,8.67
2019-01-26T12:58:06.787Z,8.37
2019-01-26T13:00:35.043Z,8.23
2019-01-26T13:03:03.336Z,8.57
2019-01-26T13:05:31.600Z,8.37
2019-01-26T13:07:59.914Z,7.47
2019-01-26T13:10:46.546Z,7.77
2019-01-26T13:13:14.839Z,7.10
2019-01-26T13:15:43.186Z,7.37
2019-01-26T13:18:11.471Z,7.23
2019-01-26T13:20:39.729Z,7.83
2019-01-26T13:23:08.012Z,7.07
2019-01-26T13:25:36.262Z,6.70
2019-01-26T13:28:04.737Z,6.90
2019-01-26T13:30:33.024Z,7.47
2019-01-26T13:33:01.477Z,7.13
2019-01-26T13:35:29.741Z,7.77
2019-01-26T13:37:58.052Z,8.13
2019-01-26T13:40:32.342Z,8.47
2019-01-26T13:43:00.633Z,9.30
2019-01-26T13:45:28.908Z,8.17
2019-01-26T13:47:57.257Z,7.77
2019-01-26T13:50:25.583Z,7.70
2019-01-26T13:52:53.954Z,8.03
2019-01-26T13:55:23.172Z,8.67
2019-01-26T13:57:51.524Z,8.20
2019-01-26T14:00:23.169Z,7.33
2019-01-26T14:02:51.534Z,6.20
2019-01-26T14:05:19.864Z,7.00
2019-01-26T14:07:48.140Z,7.23
2019-01-26T14:10:21.668Z,7.77
2019-01-26T14:12:49.931Z,7.60
2019-01-26T14:15:19.555Z,7.47
2019-01-26T14:17:47.807Z,7.70
2019-01-26T14:20:21.581Z,7.97
2019-01-26T14:22:49.827Z,6.90
2019-01-26T14:25:18.248Z,6.40
2019-01-26T14:27:46.616Z,7.33
2019-01-26T14:30:32.868Z,7.33
2019-01-26T14:33:03.178Z,7.03
2019-01-26T14:35:31.507Z,8.13
2019-01-26T14:37:59.847Z,8.57
2019-01-26T14:40:28.176Z,8.40
2019-01-26T14:42:56.502Z,9.07
2019-01-26T14:45:24.809Z,8.93
2019-01-26T14:47:53.124Z,10.10
2019-01-26T14:50:21.533Z,11.97
2019-01-26T14:52:49.821Z,10.70
2019-01-26T14:55:20.976Z,10.70
2019-01-26T14:57:49.374Z,10.87
2019-01-26T15:00:23.724Z,11.70
2019-01-26T15:02:51.969Z,12.10
2019-01-26T15:05:20.253Z,13.20
2019-01-26T15:07:48.564Z,12.53
2019-01-26T15:10:16.917Z,13.53
2019-01-26T15:12:45.252Z,12.30
2019-01-26T15:15:18.794Z,13.13
2019-01-26T15:17:47.121Z,12.53
2019-01-26T15:20:21.483Z,13.13
2019-01-26T15:22:49.798Z,13.77
2019-01-26T15:25:18.058Z,13.97
2019-01-26T15:27:46.397Z,13.57
2019-01-26T15:30:17.758Z,12.63
2019-01-26T15:32:46.059Z,12.50
2019-01-26T15:35:14.334Z,13.20
2019-01-26T15:37:42.634Z,11.17
2019-01-26T15:40:12.344Z,11.63
2019-01-26T15:42:40.721Z,11.40
2019-01-26T15:45:17.833Z,10.67
2019-01-26T15:47:46.190Z,10.37
2019-01-26T15:50:14.797Z,11.33
2019-01-26T15:52:43.098Z,11.03
2019-01-26T15:55:17.015Z,11.10
2019-01-26T15:57:45.377Z,10.77
2019-01-26T16:00:16.889Z,10.30
2019-01-26T16:02:45.211Z,10.47
2019-01-26T16:05:13.470Z,13.53
2019-01-26T16:07:41.724Z,10.70
2019-01-26T16:10:13.354Z,8.43
2019-01-26T16:12:41.702Z,8.17
2019-01-26T16:15:13.027Z,6.10
2019-01-26T16:17:41.355Z,6.93
2019-01-26T16:20:12.172Z,6.53
2019-01-26T16:22:40.524Z,6.57
2019-01-26T16:25:08.984Z,6.53
2019-01-26T16:27:37.416Z,7.00
2019-01-26T16:30:08.959Z,5.63
2019-01-26T16:32:37.214Z,6.43
2019-01-26T16:35:08.799Z,5.13
2019-01-26T16:37:37.203Z,5.13
2019-01-26T16:40:14.665Z,5.83
2019-01-26T16:42:43.001Z,5.93
2019-01-26T16:45:19.895Z,4.70
2019-01-26T16:47:48.195Z,5.13
2019-01-26T16:50:27.438Z,4.90
2019-01-26T16:52:51.772Z,4.57
2019-01-26T16:55:21.623Z,4.27
2019-01-26T16:57:49.938Z,4.03
2019-01-26T17:00:35.948Z,4.40
2019-01-26T17:03:04.325Z,4.63
2019-01-26T17:05:32.607Z,4.17
2019-01-26T17:08:01.076Z,4.00
2019-01-26T17:10:34.176Z,4.10
2019-01-26T17:12:59.490Z,4.00
2019-01-26T17:15:27.849Z,3.53
2019-01-26T17:17:56.172Z,3.80
2019-01-26T17:20:35.400Z,3.70
2019-01-26T17:23:03.764Z,3.50
2019-01-26T17:25:32.044Z,3.70
2019-01-26T17:28:00.493Z,4.40
2019-01-26T17:30:34.797Z,4.33
2019-01-26T17:33:07.406Z,4.00
2019-01-26T17:35:33.141Z,4.27
2019-01-26T17:38:01.493Z,3.67
2019-01-26T17:40:29.783Z,4.00
2019-01-26T17:42:58.136Z,2.77
2019-01-26T17:45:26.418Z,4.07
2019-01-26T17:47:54.723Z,4.47
2019-01-26T17:50:25.347Z,2.97
2019-01-26T17:52:53.634Z,3.63
2019-01-26T17:55:21.981Z,4.63
2019-01-26T17:57:50.268Z,3.30
2019-01-26T18:00:25.229Z,5.00
2019-01-26T18:02:53.854Z,4.00
2019-01-26T18:05:22.156Z,3.60
2019-01-26T18:07:50.454Z,2.97
2019-01-26T18:10:23.552Z,3.13
2019-01-26T18:12:51.915Z,2.33
2019-01-26T18:15:20.198Z,2.30
2019-01-26T18:17:48.467Z,2.07
2019-01-26T18:20:24.817Z,1.83
2019-01-26T18:22:53.174Z,1.60
2019-01-26T18:25:23.152Z,1.73
2019-01-26T18:27:51.417Z,2.03
2019-01-26T18:30:28.097Z,2.13
2019-01-26T18:32:56.355Z,2.43
2019-01-26T18:35:24.649Z,2.60
2019-01-26T18:37:53.014Z,2.43
2019-01-26T18:40:26.855Z,2.27
2019-01-26T18:42:55.123Z,3.07
2019-01-26T18:45:25.878Z,2.10
2019-01-26T18:47:54.304Z,2.27
2019-01-26T18:50:24.611Z,2.40
2019-01-26T18:52:52.949Z,2.10
2019-01-26T18:55:21.218Z,1.97
2019-01-26T18:57:49.513Z,2.40
2019-01-26T19:00:20.626Z,1.90
2019-01-26T19:02:52.173Z,2.10
2019-01-26T19:05:22.459Z,2.53
2019-01-26T19:07:50.832Z,2.30
2019-01-26T19:10:19.099Z,2.70
2019-01-26T19:12:47.457Z,2.90
2019-01-26T19:15:21.621Z,2.63
2019-01-26T19:17:49.927Z,2.47
2019-01-26T19:20:18.212Z,3.20
2019-01-26T19:22:46.552Z,2.23
2019-01-26T19:25:18.941Z,2.50
2019-01-26T19:27:47.201Z,2.83
2019-01-26T19:30:20.576Z,3.63
2019-01-26T19:32:48.873Z,3.93
2019-01-26T19:35:17.227Z,3.60
2019-01-26T19:37:45.546Z,3.83
2019-01-26T19:40:16.887Z,2.93
2019-01-26T19:42:45.224Z,2.97
2019-01-26T19:45:16.029Z,3.30
2019-01-26T19:47:44.338Z,3.53
2019-01-26T19:50:15.909Z,3.30
2019-01-26T19:52:44.183Z,2.80
2019-01-26T19:55:12.579Z,3.23
2019-01-26T19:57:41.866Z,3.27
2019-01-26T20:00:10.304Z,2.70
2019-01-26T20:02:38.573Z,3.03
2019-01-26T20:05:10.158Z,2.87
2019-01-26T20:07:38.518Z,2.77
2019-01-26T20:10:09.378Z,3.00
2019-01-26T20:12:37.638Z,4.10
2019-01-26T20:15:09.327Z,3.80
2019-01-26T20:17:37.598Z,2.97
2019-01-26T20:20:09.149Z,3.13
2019-01-26T20:22:37.479Z,4.13
2019-01-26T20:25:05.960Z,4.33
2019-01-26T20:27:34.337Z,3.30
2019-01-26T20:30:02.765Z,3.33
2019-01-26T20:32:31.150Z,3.13
2019-01-26T20:34:59.573Z,3.50
2019-01-26T20:37:27.879Z,3.10
2019-01-26T20:39:56.189Z,3.70
2019-01-26T20:42:24.449Z,4.17
2019-01-26T20:44:52.745Z,3.07
2019-01-26T20:47:21.072Z,2.77
2019-01-26T20:49:49.408Z,3.00
2019-01-26T20:52:17.737Z,2.90
2019-01-26T20:54:46.005Z,3.20
2019-01-26T20:57:14.290Z,3.30
2019-01-26T20:59:42.569Z,2.47
2019-01-26T21:02:10.960Z,2.30
2019-01-26T21:04:39.202Z,2.37
2019-01-26T21:07:07.593Z,1.93
2019-01-26T21:09:35.871Z,2.50
2019-01-26T21:12:04.179Z,2.43
2019-01-26T21:14:32.498Z,2.50
2019-01-26T21:17:00.900Z,2.20
2019-01-26T21:19:29.198Z,2.50
2019-01-26T21:21:57.484Z,2.73
2019-01-26T21:24:25.815Z,2.47
2019-01-26T21:26:54.111Z,2.63
2019-01-26T21:29:22.368Z,2.57
2019-01-26T21:31:50.659Z,3.00
2019-01-26T21:34:18.939Z,2.50
2019-01-26T21:36:47.235Z,2.77
2019-01-26T21:39:15.490Z,2.50
2019-01-26T21:41:43.838Z,2.00
2019-01-26T21:44:12.132Z,2.37
2019-01-26T21:46:40.461Z,2.03
2019-01-26T21:49:08.797Z,1.97
2019-01-26T21:51:39.039Z,2.20
2019-01-26T21:54:07.095Z,2.00
2019-01-26T21:56:35.349Z,2.27
2019-01-26T21:59:03.670Z,1.73
2019-01-26T22:01:32.012Z,1.60
2019-01-26T22:04:00.388Z,1.77
2019-01-26T22:06:28.681Z,1.80
2019-01-26T22:08:56.968Z,1.47
2019-01-26T22:11:25.250Z,1.37
2019-01-26T22:13:53.551Z,1.60
2019-01-26T22:16:21.860Z,1.70
2019-01-26T22:18:50.178Z,2.00
2019-01-26T22:21:18.450Z,1.40
2019-01-26T22:23:46.742Z,1.70
2019-01-26T22:26:14.989Z,1.70
2019-01-26T22:28:43.348Z,1.70
2019-01-26T22:31:11.630Z,2.27
2019-01-26T22:33:40.024Z,2.60
2019-01-26T22:36:08.292Z,2.03
2019-01-26T22:38:36.585Z,1.63
2019-01-26T22:41:04.894Z,1.43
2019-01-26T22:43:33.204Z,1.87
2019-01-26T22:46:01.575Z,1.50
2019-01-26T22:48:29.902Z,1.77
2019-01-26T22:50:58.199Z,1.57
2019-01-26T22:53:26.472Z,1.60
2019-01-26T22:55:54.757Z,1.70
2019-01-26T22:58:23.021Z,1.57
2019-01-26T23:01:00.634Z,1.63
2019-01-26T23:03:34.839Z,1.50
2019-01-26T23:06:15.445Z,1.50
2019-01-26T23:08:45.042Z,1.30
2019-01-26T23:11:16.584Z,1.30
2019-01-26T23:13:48.089Z,1.30
2019-01-26T23:16:37.515Z,1.20
2019-01-26T23:19:28.389Z,1.30
2019-01-26T23:22:14.524Z,1.20
2019-01-26T23:24:46.045Z,1.30
2019-01-26T23:27:20.380Z,1.20
2019-01-26T23:30:24.877Z,1.10
2019-01-26T23:32:53.163Z,1.10
2019-01-26T23:35:21.452Z,1.33
2019-01-26T23:37:49.837Z,1.23
2019-01-26T23:40:18.122Z,1.10
2019-01-26T23:42:46.493Z,1.27
2019-01-26T23:45:14.758Z,2.00
2019-01-26T23:47:43.079Z,1.30
2019-01-26T23:50:11.363Z,2.30
2019-01-26T23:52:39.686Z,1.70
2019-01-26T23:55:10.272Z,1.30
2019-01-26T23:57:38.539Z,1.20
